Time,TemperatureF,DewpointF,PressureIn,WindDirection,WindDirectionDegrees,WindSpeedMPH,WindSpeedGustMPH,Humidity,HourlyPrecipIn,Conditions,Clouds,dailyrainin,SoftwareType,DateUTC
2013-03-27 00:02:00,32.0,28.0,30.23,NNW,335,0.0,-999.0,86,-99.99,,,-99.99,,2013-03-27 04:02:00,
2013-03-27 00:13:00,32.0,28.0,30.23,NNW,335,0.0,-999.0,86,-99.99,,,-99.99,,2013-03-27 04:13:00,
2013-03-27 00:23:00,32.0,29.0,30.23,WNW,285,0.0,-999.0,87,-99.99,,,-99.99,,2013-03-27 04:23:00,
2013-03-27 00:33:00,32.0,29.0,30.23,WNW,285,0.0,-999.0,87,-99.99,,,-99.99,,2013-03-27 04:33:00,
2013-03-27 00:42:00,32.0,29.0,30.23,WNW,285,0.0,-999.0,87,-99.99,,,-99.99,,2013-03-27 04:42:00,
2013-03-27 00:52:00,32.0,29.0,30.23,WNW,285,0.0,-999.0,87,-99.99,,,-99.99,,2013-03-27 04:52:00,
2013-03-27 01:02:00,32.0,29.0,30.23,WNW,285,0.0,-999.0,87,-99.99,,,-99.99,,2013-03-27 05:02:00,
2013-03-27 01:12:00,32.0,29.0,30.23,WNW,285,0.0,-999.0,87,-99.99,,,-99.99,,2013-03-27 05:12:00,
2013-03-27 01:23:00,32.0,29.0,30.23,WNW,285,0.0,-999.0,87,-99.99,,,-99.99,,2013-03-27 05:23:00,
2013-03-27 06:32:00,32.0,29.0,30.24,WNW,285,0.0,-999.0,89,-99.99,,,-99.99,,2013-03-27 10:32:00,
2013-03-27 06:42:00,32.0,29.0,30.24,WNW,285,0.0,-999.0,89,-99.99,,,-99.99,,2013-03-27 10:42:00,
2013-03-27 06:53:00,33.0,30.0,30.24,WNW,285,0.0,-999.0,89,-99.99,,,-99.99,,2013-03-27 10:53:00,
2013-03-27 07:02:00,32.0,29.0,30.24,WNW,285,0.0,-999.0,88,-99.99,,,-99.99,,2013-03-27 11:02:00,
2013-03-27 07:12:00,32.0,29.0,30.24,WNW,285,0.0,-999.0,88,-99.99,,,-99.99,,2013-03-27 11:12:00,
2013-03-27 07:22:00,32.0,29.0,30.24,WNW,285,0.0,-999.0,88,-99.99,,,-99.99,,2013-03-27 11:22:00,
2013-03-27 07:32:00,32.0,29.0,30.24,WNW,285,0.0,-999.0,88,-99.99,,,-99.99,,2013-03-27 11:32:00,
2013-03-27 07:42:00,32.0,29.0,30.24,WNW,285,0.0,-999.0,88,-99.99,,,-99.99,,2013-03-27 11:42:00,
2013-03-27 07:52:00,32.0,29.0,30.24,WNW,285,0.0,-999.0,89,-99.99,,,-99.99,,2013-03-27 11:52:00,
2013-03-27 08:02:00,32.0,29.0,30.25,WNW,285,0.0,-999.0,89,-99.99,,,-99.99,,2013-03-27 12:02:00,
2013-03-27 08:12:00,32.0,29.0,30.25,WNW,285,0.0,-999.0,89,-99.99,,,-99.99,,2013-03-27 12:12:00,
2013-03-27 08:22:00,32.0,29.0,30.26,WNW,285,0.0,-999.0,89,-99.99,,,-99.99,,2013-03-27 12:22:00,
2013-03-27 08:32:00,32.0,29.0,30.26,WNW,285,0.0,-999.0,89,-99.99,,,-99.99,,2013-03-27 12:32:00,
2013-03-27 08:43:00,32.0,29.0,30.26,WNW,285,0.0,-999.0,89,-99.99,,,-99.99,,2013-03-27 12:43:00,
2013-03-27 08:52:00,33.0,30.0,30.27,WNW,285,0.0,-999.0,89,-99.99,,,-99.99,,2013-03-27 12:52:00,
2013-03-27 09:02:00,33.0,30.0,30.27,WNW,285,0.0,-999.0,89,-99.99,,,-99.99,,2013-03-27 13:02:00,
2013-03-27 09:12:00,33.0,30.0,30.27,WNW,285,0.0,-999.0,89,-99.99,,,-99.99,,2013-03-27 13:12:00,
2013-03-27 09:22:00,34.0,31.0,30.28,West,280,1.0,-999.0,88,-99.99,,,-99.99,,2013-03-27 13:22:00,
2013-03-27 09:32:00,34.0,31.0,30.28,West,280,0.0,-999.0,87,-99.99,,,-99.99,,2013-03-27 13:32:00,
2013-03-27 09:42:00,34.0,31.0,30.28,West,280,0.0,-999.0,87,-99.99,,,-99.99,,2013-03-27 13:42:00,
2013-03-27 09:53:00,35.0,31.0,30.29,West,278,0.0,-999.0,86,-99.99,,,-99.99,,2013-03-27 13:53:00,
2013-03-27 10:02:00,36.0,32.0,30.29,West,270,1.0,-999.0,85,-99.99,,,-99.99,,2013-03-27 14:02:00,
2013-03-27 10:12:00,36.0,32.0,30.29,West,270,1.0,-999.0,85,-99.99,,,-99.99,,2013-03-27 14:12:00,
2013-03-27 10:22:00,37.0,32.0,30.29,West,261,0.0,-999.0,83,-99.99,,,-99.99,,2013-03-27 14:22:00,
2013-03-27 10:32:00,37.0,32.0,30.29,WSW,258,1.0,-999.0,81,-99.99,,,-99.99,,2013-03-27 14:32:00,
2013-03-27 10:42:00,37.0,32.0,30.29,WSW,258,1.0,-999.0,81,-99.99,,,-99.99,,2013-03-27 14:42:00,
2013-03-27 10:52:00,38.0,31.0,30.29,NW,320,1.0,-999.0,77,-99.99,,,-99.99,,2013-03-27 14:52:00,
2013-03-27 11:02:00,38.0,30.0,30.29,North,349,1.0,-999.0,74,-99.99,,,-99.99,,2013-03-27 15:02:00,
2013-03-27 11:12:00,38.0,30.0,30.29,North,349,1.0,-999.0,74,-99.99,,,-99.99,,2013-03-27 15:12:00,
2013-03-27 11:22:00,39.0,31.0,30.29,North,349,0.0,-999.0,74,-99.99,,,-99.99,,2013-03-27 15:22:00,
2013-03-27 11:33:00,39.0,30.0,30.29,NW,318,1.0,-999.0,70,-99.99,,,-99.99,,2013-03-27 15:33:00,
2013-03-27 11:42:00,39.0,30.0,30.29,NW,318,1.0,-999.0,70,-99.99,,,-99.99,,2013-03-27 15:42:00,
2013-03-27 11:52:00,40.0,30.0,30.30,North,353,1.0,-999.0,68,-99.99,,,-99.99,,2013-03-27 15:52:00,
2013-03-27 12:02:00,40.0,29.0,30.30,SW,222,1.0,-999.0,65,-99.99,,,-99.99,,2013-03-27 16:02:00,
2013-03-27 12:12:00,40.0,29.0,30.30,SW,222,1.0,-999.0,65,-99.99,,,-99.99,,2013-03-27 16:12:00,
2013-03-27 12:22:00,41.0,28.0,30.30,WNW,301,2.0,-999.0,59,-99.99,,,-99.99,,2013-03-27 16:22:00,
2013-03-27 12:32:00,41.0,27.0,30.30,North,360,1.0,-999.0,56,-99.99,,,-99.99,,2013-03-27 16:32:00,
2013-03-27 12:42:00,41.0,27.0,30.30,North,360,1.0,-999.0,56,-99.99,,,-99.99,,2013-03-27 16:42:00,
2013-03-27 12:52:00,42.0,26.0,30.30,North,352,1.0,-999.0,52,-99.99,,,-99.99,,2013-03-27 16:52:00,
2013-03-27 13:02:00,42.0,24.0,30.30,NW,311,3.0,-999.0,49,-99.99,,,-99.99,,2013-03-27 17:02:00,
2013-03-27 13:12:00,42.0,24.0,30.30,NW,311,3.0,-999.0,49,-99.99,,,-99.99,,2013-03-27 17:12:00,
2013-03-27 13:22:00,42.0,23.0,30.30,WNW,294,2.0,-999.0,47,-99.99,,,-99.99,,2013-03-27 17:22:00,
2013-03-27 13:32:00,42.0,26.0,30.30,WNW,291,2.0,-999.0,52,-99.99,,,-99.99,,2013-03-27 17:32:00,
2013-03-27 13:44:00,42.0,26.0,30.30,WNW,291,2.0,-999.0,52,-99.99,,,-99.99,,2013-03-27 17:44:00,
2013-03-27 13:52:00,41.0,24.0,30.30,North,356,2.0,-999.0,51,-99.99,,,-99.99,,2013-03-27 17:52:00,
2013-03-27 14:02:00,41.0,24.0,30.30,NW,309,2.0,-999.0,50,-99.99,,,-99.99,,2013-03-27 18:02:00,
2013-03-27 14:12:00,41.0,24.0,30.30,NW,309,2.0,-999.0,50,-99.99,,,-99.99,,2013-03-27 18:12:00,
2013-03-27 14:22:00,42.0,25.0,30.30,West,267,2.0,-999.0,50,-99.99,,,-99.99,,2013-03-27 18:22:00,
2013-03-27 14:32:00,42.0,24.0,30.30,WNW,282,2.0,-999.0,49,-99.99,,,-99.99,,2013-03-27 18:32:00,
2013-03-27 14:42:00,42.0,24.0,30.30,WNW,282,2.0,-999.0,49,-99.99,,,-99.99,,2013-03-27 18:42:00,
2013-03-27 14:53:00,42.0,23.0,30.30,WNW,285,2.0,-999.0,47,-99.99,,,-99.99,,2013-03-27 18:53:00,
2013-03-27 15:02:00,42.0,25.0,30.30,North,359,2.0,-999.0,50,-99.99,,,-99.99,,2013-03-27 19:02:00,
2013-03-27 15:12:00,42.0,25.0,30.30,North,359,2.0,-999.0,50,-99.99,,,-99.99,,2013-03-27 19:12:00,
2013-03-27 15:22:00,43.0,24.0,30.30,NNW,330,2.0,-999.0,47,-99.99,,,-99.99,,2013-03-27 19:22:00,
2013-03-27 15:32:00,42.0,23.0,30.30,West,265,3.0,-999.0,47,-99.99,,,-99.99,,2013-03-27 19:32:00,
2013-03-27 15:42:00,42.0,23.0,30.30,West,265,3.0,-999.0,47,-99.99,,,-99.99,,2013-03-27 19:42:00,
2013-03-27 15:52:00,42.0,23.0,30.30,North,1,2.0,-999.0,47,-99.99,,,-99.99,,2013-03-27 19:52:00,
2013-03-27 16:02:00,42.0,22.0,30.30,West,277,2.0,-999.0,45,-99.99,,,-99.99,,2013-03-27 20:02:00,
2013-03-27 16:12:00,42.0,22.0,30.30,West,277,2.0,-999.0,45,-99.99,,,-99.99,,2013-03-27 20:12:00,
2013-03-27 16:22:00,41.0,22.0,30.29,WNW,292,2.0,-999.0,46,-99.99,,,-99.99,,2013-03-27 20:22:00,
2013-03-27 16:32:00,43.0,23.0,30.29,North,359,3.0,-999.0,45,-99.99,,,-99.99,,2013-03-27 20:32:00,
2013-03-27 16:42:00,43.0,23.0,30.29,North,359,3.0,-999.0,45,-99.99,,,-99.99,,2013-03-27 20:42:00,
2013-03-27 16:52:00,42.0,20.0,30.29,NNW,330,4.0,-999.0,41,-99.99,,,-99.99,,2013-03-27 20:52:00,
2013-03-27 17:02:00,42.0,21.0,30.29,West,265,3.0,-999.0,43,-99.99,,,-99.99,,2013-03-27 21:02:00,
2013-03-27 17:12:00,42.0,21.0,30.29,West,265,3.0,-999.0,43,-99.99,,,-99.99,,2013-03-27 21:12:00,
2013-03-27 17:22:00,43.0,21.0,30.29,WNW,298,3.0,-999.0,41,-99.99,,,-99.99,,2013-03-27 21:22:00,
2013-03-27 17:32:00,42.0,21.0,30.29,West,265,4.0,-999.0,42,-99.99,,,-99.99,,2013-03-27 21:32:00,
2013-03-27 17:43:00,42.0,21.0,30.29,West,265,4.0,-999.0,42,-99.99,,,-99.99,,2013-03-27 21:43:00,
2013-03-27 17:52:00,42.0,21.0,30.29,West,271,3.0,-999.0,43,-99.99,,,-99.99,,2013-03-27 21:52:00,
2013-03-27 18:03:00,42.0,21.0,30.29,North,1,3.0,-999.0,43,-99.99,,,-99.99,,2013-03-27 22:03:00,
2013-03-27 18:12:00,42.0,21.0,30.29,North,1,3.0,-999.0,43,-99.99,,,-99.99,,2013-03-27 22:12:00,
2013-03-27 18:23:00,42.0,20.0,30.29,WNW,299,3.0,-999.0,41,-99.99,,,-99.99,,2013-03-27 22:23:00,
2013-03-27 18:33:00,41.0,20.0,30.29,West,265,2.0,-999.0,42,-99.99,,,-99.99,,2013-03-27 22:33:00,
2013-03-27 18:42:00,41.0,20.0,30.29,West,265,2.0,-999.0,42,-99.99,,,-99.99,,2013-03-27 22:42:00,
2013-03-27 18:52:00,41.0,19.0,30.29,West,274,3.0,-999.0,41,-99.99,,,-99.99,,2013-03-27 22:52:00,
2013-03-27 19:02:00,41.0,20.0,30.29,NNW,336,2.0,-999.0,42,-99.99,,,-99.99,,2013-03-27 23:02:00,
2013-03-27 19:12:00,41.0,20.0,30.29,NNW,336,2.0,-999.0,42,-99.99,,,-99.99,,2013-03-27 23:12:00,
2013-03-27 19:22:00,41.0,20.0,30.29,North,360,1.0,-999.0,43,-99.99,,,-99.99,,2013-03-27 23:22:00,
2013-03-27 19:32:00,41.0,20.0,30.29,NNW,335,1.0,-999.0,43,-99.99,,,-99.99,,2013-03-27 23:32:00,
2013-03-27 19:42:00,41.0,20.0,30.29,NNW,335,1.0,-999.0,43,-99.99,,,-99.99,,2013-03-27 23:42:00,
2013-03-27 19:52:00,40.0,20.0,30.29,West,271,1.0,-999.0,45,-99.99,,,-99.99,,2013-03-27 23:52:00,
2013-03-27 20:02:00,39.0,20.0,30.29,North,360,1.0,-999.0,47,-99.99,,,-99.99,,2013-03-28 00:02:00,
2013-03-27 20:12:00,39.0,20.0,30.29,North,360,1.0,-999.0,47,-99.99,,,-99.99,,2013-03-28 00:12:00,
2013-03-27 20:22:00,38.0,21.0,30.29,North,354,0.0,-999.0,50,-99.99,,,-99.99,,2013-03-28 00:22:00,
2013-03-27 20:32:00,37.0,21.0,30.29,North,356,0.0,-999.0,51,-99.99,,,-99.99,,2013-03-28 00:32:00,
2013-03-27 20:42:00,37.0,21.0,30.29,North,356,0.0,-999.0,51,-99.99,,,-99.99,,2013-03-28 00:42:00,
2013-03-27 20:52:00,37.0,21.0,30.29,North,356,0.0,-999.0,53,-99.99,,,-99.99,,2013-03-28 00:52:00,
2013-03-27 21:02:00,36.0,21.0,30.30,North,356,0.0,-999.0,54,-99.99,,,-99.99,,2013-03-28 01:02:00,
2013-03-27 21:12:00,36.0,21.0,30.30,North,356,0.0,-999.0,54,-99.99,,,-99.99,,2013-03-28 01:12:00,
2013-03-27 21:22:00,35.0,21.0,30.30,North,356,0.0,-999.0,57,-99.99,,,-99.99,,2013-03-28 01:22:00,
2013-03-27 21:32:00,34.0,21.0,30.30,North,356,0.0,-999.0,59,-99.99,,,-99.99,,2013-03-28 01:32:00,
2013-03-27 21:42:00,34.0,21.0,30.30,North,356,0.0,-999.0,59,-99.99,,,-99.99,,2013-03-28 01:42:00,
2013-03-27 21:53:00,33.0,21.0,30.31,North,356,0.0,-999.0,61,-99.99,,,-99.99,,2013-03-28 01:53:00,
2013-03-27 22:02:00,32.0,21.0,30.31,North,356,0.0,-999.0,64,-99.99,,,-99.99,,2013-03-28 02:02:00,
2013-03-27 22:12:00,32.0,21.0,30.31,North,356,0.0,-999.0,64,-99.99,,,-99.99,,2013-03-28 02:12:00,
2013-03-27 22:22:00,31.0,20.0,30.31,North,356,0.0,-999.0,64,-99.99,,,-99.99,,2013-03-28 02:22:00,
2013-03-27 22:32:00,30.0,20.0,30.31,North,356,0.0,-999.0,66,-99.99,,,-99.99,,2013-03-28 02:32:00,
2013-03-27 22:42:00,30.0,20.0,30.31,North,356,0.0,-999.0,66,-99.99,,,-99.99,,2013-03-28 02:42:00,
2013-03-27 22:52:00,30.0,20.0,30.31,North,356,0.0,-999.0,66,-99.99,,,-99.99,,2013-03-28 02:52:00,
2013-03-27 23:02:00,29.0,20.0,30.32,North,356,0.0,-999.0,68,-99.99,,,-99.99,,2013-03-28 03:02:00,
2013-03-27 23:12:00,29.0,20.0,30.32,North,356,0.0,-999.0,68,-99.99,,,-99.99,,2013-03-28 03:12:00,
2013-03-27 23:22:00,29.0,20.0,30.32,North,356,0.0,-999.0,69,-99.99,,,-99.99,,2013-03-28 03:22:00,
2013-03-27 23:33:00,29.0,20.0,30.32,North,356,0.0,-999.0,70,-99.99,,,-99.99,,2013-03-28 03:33:00,
2013-03-27 23:42:00,29.0,20.0,30.32,North,356,0.0,-999.0,70,-99.99,,,-99.99,,2013-03-28 03:42:00,
2013-03-27 23:53:00,28.0,20.0,30.32,North,356,0.0,-999.0,70,-99.99,,,-99.99,,2013-03-28 03:53:00,